Latest Weather Observations for Aireys Inlet

IDV60801

Issued at 9:42 pm EST Monday 18 June 2018 (issued every 10 minutes, with the page automatically refreshed every 10 minutes)

About weather observations | Map of weather stations | Latest weather observations for VIC | Other Formats
Station Details ID: 090180 Name: AIREYS INLET Lat: -38.46 Lon: 144.09 Height: 105.0 m
Data from the previous 72 hours. | See also: Recent months at Aireys Inlet
Date/Time
EST
Temp
°C
App
Temp
°C
Dew
Point
°C
Rel
Hum
%
Delta-T
°C
Wind Press
QNH
hPa
Press
MSL
hPa
Rain since
9am
mm
Dir  Spd
km/h
Gust
km/h
Spd
kts
Gust
kts
18/09:30pm 9.6 6.9 5.6 76 1.8 SSE 9 13 5 7 - - 0.0
18/09:00pm 9.5 6.8 5.7 77 1.7 SSE 9 15 5 8 - - 0.0
18/08:30pm 9.7 7.1 5.9 77 1.8 SE 9 15 5 8 - - 0.0
18/08:00pm 9.7 7.1 5.9 77 1.8 SE 9 17 5 9 - - 0.0
18/07:30pm 9.6 7.0 6.0 78 1.7 SSE 9 17 5 9 - - 0.0
18/07:00pm 9.2 6.1 5.4 77 1.7 S 11 20 6 11 - - 0.0
18/06:30pm 9.0 5.0 5.0 76 1.8 S 15 20 8 11 - - 0.0
18/06:00pm 9.5 5.5 5.1 74 2.0 S 15 28 8 15 - - 0.0
18/05:30pm 9.6 4.8 5.8 77 1.7 S 20 28 11 15 - - 0.0
18/05:00pm 10.4 6.0 6.5 77 1.8 S 19 28 10 15 - - 0.0
18/04:30pm 10.9 6.2 5.2 68 2.6 SSW 19 28 10 15 - - 0.0
18/04:00pm 10.7 5.8 5.0 68 2.6 SSW 20 32 11 17 - - 0.0
18/03:30pm 10.9 6.3 5.4 69 2.5 SSW 19 26 10 14 - - 0.0
18/03:00pm 11.3 6.6 5.0 65 2.9 SSW 19 32 10 17 - - 0.0
18/02:30pm 11.3 6.4 5.0 65 2.9 SSW 20 32 11 17 - - 0.0
18/02:00pm 11.5 6.6 5.2 65 2.9 S 20 32 11 17 - - 0.0
18/01:30pm 11.4 6.2 5.3 66 2.8 S 22 33 12 18 - - 0.0
18/01:00pm 11.2 6.7 6.1 71 2.4 SSW 19 30 10 16 - - 0.0
18/12:30pm 11.1 5.7 6.5 73 2.2 SW 24 37 13 20 - - 0.0
18/12:00pm 11.5 6.5 4.7 63 3.1 SSW 20 32 11 17 - - 0.0
18/11:30am 11.3 6.8 6.0 70 2.5 SSW 19 32 10 17 - - 0.0
18/11:00am 10.6 5.5 6.0 73 2.1 SW 22 35 12 19 - - 0.0
18/10:30am 11.0 6.1 5.3 68 2.6 SSW 20 32 11 17 - - 0.0
18/10:00am 10.6 4.8 4.3 65 2.8 S 24 41 13 22 - - 0.0
18/09:30am 10.3 4.2 4.7 68 2.5 SSW 26 37 14 20 - - 0.0
18/09:00am 10.3 4.4 3.8 64 2.9 SSW 24 43 13 23 - - 2.4
18/08:30am 10.2 4.0 4.4 67 2.6 SSW 26 35 14 19 - - 2.4
18/08:00am 10.2 4.0 4.1 66 2.7 SSW 26 41 14 22 - - 2.4
18/07:30am 10.2 4.7 4.1 66 2.7 SSW 22 33 12 18 - - 2.4
18/07:00am 10.2 4.3 3.9 65 2.8 SSW 24 33 13 18 - - 2.4
18/06:30am 10.3 4.8 4.0 65 2.8 SSW 22 33 12 18 - - 2.4
18/06:00am 10.3 3.6 3.8 64 2.9 S 28 41 15 22 - - 2.4
18/05:30am 10.3 4.7 5.3 71 2.3 S 24 37 13 20 - - 2.4
18/05:00am 10.1 3.8 5.5 73 2.1 S 28 43 15 23 - - 2.4
18/04:30am 10.0 2.9 5.6 74 2.0 SSW 32 46 17 25 - - 2.4
18/04:00am 10.1 3.3 5.1 71 2.3 S 30 50 16 27 - - 2.4
18/03:56am 10.1 3.4 5.5 73 2.1 S 30 50 16 27 - - 2.4
18/03:30am 10.6 3.8 5.2 69 2.5 SSW 30 44 16 24 - - 2.4
18/03:00am 10.5 3.6 6.3 75 2.0 SSW 32 48 17 26 - - 2.4
18/02:30am 10.3 3.5 5.1 70 2.4 S 30 43 16 23 - - 2.4
18/02:24am 10.4 3.7 5.4 71 2.3 S 30 48 16 26 - - 2.4
18/02:00am 10.4 3.3 5.6 72 2.2 S 32 44 17 24 - - 2.4
18/01:30am 10.2 3.5 5.8 74 2.0 S 30 43 16 23 - - 2.4
18/01:00am 10.3 3.7 5.9 74 2.0 SSW 30 44 16 24 - - 2.4
18/12:30am 10.3 3.6 5.7 73 2.1 SSW 30 48 16 26 - - 2.4
18/12:25am 10.3 4.1 6.1 75 2.0 SSW 28 48 15 26 - - 2.4
18/12:00am 10.5 3.2 5.3 70 2.4 SSW 33 48 18 26 - - 2.4
 
Date/Time
EST
Temp
°C
App
Temp
°C
Dew
Point
°C
Rel
Hum
%
Delta-T
°C
Wind Press
QNH
hPa
Press
MSL
hPa
Rain since
9am
mm
Dir  Spd
km/h
Gust
km/h
Spd
kts
Gust
kts
17/11:30pm 10.4 3.3 5.4 71 2.3 S 32 48 17 26 - - 2.4
17/11:04pm 10.6 3.9 5.8 72 2.2 SSW 30 50 16 27 - - 2.4
17/11:00pm 10.6 3.5 6.2 74 2.1 SSW 33 50 18 27 - - 2.4
17/10:41pm 10.7 3.5 6.1 73 2.2 SSW 33 52 18 28 - - 2.4
17/10:30pm 10.7 3.1 5.7 71 2.3 SSW 35 48 19 26 - - 2.4
17/10:01pm 10.8 3.8 6.7 76 1.9 SSW 33 52 18 28 - - 2.4
17/10:00pm 10.8 4.0 6.7 76 1.9 S 32 50 17 27 - - 2.4
17/09:46pm 10.5 3.6 6.6 77 1.8 SSW 32 50 17 27 - - 2.4
17/09:30pm 10.9 3.5 6.8 76 2.0 SSW 35 50 19 27 - - 2.4
17/09:00pm 10.9 3.4 6.3 73 2.2 S 35 56 19 30 - - 2.4
17/08:58pm 10.9 3.8 6.6 75 2.0 S 33 56 18 30 - - 2.4
17/08:30pm 10.9 3.5 6.6 75 2.0 SSW 35 50 19 27 - - 2.4
17/08:00pm 10.9 3.5 6.8 76 2.0 SSW 35 54 19 29 - - 2.4
17/07:33pm 10.7 2.8 7.8 82 1.4 SSW 39 57 21 31 - - 2.4
17/07:30pm 10.7 2.4 7.8 82 1.4 SSW 41 57 22 31 - - 2.4
17/07:00pm 10.5 3.5 8.6 88 0.9 SSW 35 54 19 29 - - 2.4
17/06:30pm 10.5 3.7 9.3 92 0.6 SSW 35 57 19 31 - - 2.2
17/06:00pm 10.7 3.0 8.8 88 0.9 SSW 39 65 21 35 - - 1.8
17/05:30pm 10.8 2.2 8.2 84 1.3 SSW 43 65 23 35 - - 1.8
17/05:00pm 10.9 2.8 8.7 86 1.1 SSW 41 63 22 34 - - 1.8
17/04:30pm 10.9 3.3 9.2 89 0.9 SSW 39 57 21 31 - - 1.8
17/04:00pm 11.4 3.4 9.1 86 1.2 SSW 41 65 22 35 - - 1.8
17/03:30pm 11.5 2.8 8.4 81 1.5 SSW 44 70 24 38 - - 1.8
17/03:00pm 10.9 1.1 8.7 86 1.1 SSW 50 70 27 38 - - 1.6
17/02:30pm 11.3 2.0 9.0 86 1.2 SSW 48 69 26 37 - - 1.6
17/02:00pm 11.7 1.5 8.6 81 1.5 SSW 52 76 28 41 - - 1.6
17/01:30pm 10.6 1.3 9.0 90 0.8 SSW 48 76 26 41 - - 1.6
17/01:00pm 11.2 1.5 9.1 87 1.1 SSW 50 74 27 40 - - 1.4
17/12:30pm 11.4 2.5 9.3 87 1.1 SSW 46 72 25 39 - - 1.4
17/12:00pm 11.2 1.4 8.8 85 1.2 SSW 50 72 27 39 - - 1.0
17/11:30am 11.3 1.0 8.3 82 1.5 SSW 52 72 28 39 - - 0.8
17/11:00am 11.5 1.9 9.4 87 1.1 SW 50 70 27 38 - - 0.6
17/10:30am 11.7 3.2 9.3 85 1.2 SW 44 67 24 36 - - 0.6
17/10:00am 11.6 2.3 9.0 84 1.3 SSW 48 72 26 39 - - 0.6
17/09:30am 10.7 2.3 9.5 92 0.6 SSW 44 78 24 42 - - 0.6
17/09:00am 10.3 1.0 9.2 93 0.5 SSW 48 76 26 41 - - 26.2
17/08:30am 10.1 0.4 9.2 94 0.4 SW 50 83 27 45 - - 24.8
17/08:00am 10.4 1.1 9.2 92 0.6 SW 48 78 26 42 - - 23.2
17/07:47am 10.3 1.9 9.5 95 0.4 SW 44 83 24 45 - - 23.2
17/07:33am 9.7 0.7 8.8 94 0.4 SW 46 85 25 46 - - 23.0
17/07:30am 10.0 1.6 9.1 94 0.4 SW 43 72 23 39 - - 22.6
17/07:00am 10.1 1.6 9.2 94 0.4 SW 44 69 24 37 - - 20.6
17/06:30am 10.5 0.9 9.3 92 0.6 SW 50 83 27 45 - - 19.8
17/06:00am 10.1 2.4 8.5 90 0.8 SW 39 69 21 37 - - 19.6
17/05:30am 9.7 0.5 7.8 88 0.9 SW 46 78 25 42 - - 19.2
17/05:00am 9.8 1.2 8.2 90 0.8 SW 43 74 23 40 - - 19.2
17/04:30am 9.8 0.8 7.4 85 1.1 SW 44 67 24 36 - - 18.8
17/04:12am 9.4 3.2 7.7 89 0.8 WSW 30 59 16 32 - - 18.8
17/04:00am 9.3 1.7 7.7 90 0.8 WSW 37 59 20 32 - - 18.6
17/03:57am 9.3 1.0 7.9 91 0.7 WSW 41 59 22 32 - - 18.6
17/03:56am 9.2 1.0 8.0 92 0.6 WSW 41 59 22 32 - - 18.6
17/03:30am 8.4 0.7 7.2 92 0.6 SW 37 74 20 40 - - 18.4
17/03:27am 8.6 1.9 7.2 91 0.7 WSW 32 74 17 40 - - 18.2
17/03:26am 9.1 2.9 7.9 92 0.6 WSW 30 72 16 39 - - 17.8
17/03:06am 8.9 3.1 7.8 93 0.5 SW 28 54 15 29 - - 17.4
17/03:00am 8.9 3.8 7.7 92 0.6 WSW 24 44 13 24 - - 16.8
17/02:30am 9.2 2.5 8.3 94 0.4 WSW 33 54 18 29 - - 15.8
17/02:16am 8.4 4.2 7.5 94 0.4 WSW 19 57 10 31 - - 15.6
17/02:00am 8.2 2.6 7.0 92 0.6 WSW 26 43 14 23 - - 15.4
17/01:30am 7.8 2.2 7.1 95 0.3 WSW 26 41 14 22 - - 12.6
17/01:00am 7.7 3.4 7.0 95 0.3 SW 19 32 10 17 - - 11.6
17/12:30am 7.8 2.5 6.6 92 0.6 WSW 24 37 13 20 - - 9.4
17/12:00am 7.4 2.4 6.5 94 0.4 W 22 30 12 16 - - 8.2
 
Date/Time
EST
Temp
°C
App
Temp
°C
Dew
Point
°C
Rel
Hum
%
Delta-T
°C
Wind Press
QNH
hPa
Press
MSL
hPa
Rain since
9am
mm
Dir  Spd
km/h
Gust
km/h
Spd
kts
Gust
kts
16/11:30pm 6.8 2.1 6.1 95 0.3 WNW 20 26 11 14 - - 7.0
16/11:00pm 6.7 1.6 6.0 95 0.3 WNW 22 35 12 19 - - 4.6
16/10:30pm 6.5 0.9 5.6 94 0.4 NW 24 35 13 19 - - 4.0
16/10:00pm 6.6 1.1 5.9 95 0.3 WNW 24 35 13 19 - - 3.8
16/09:30pm 6.5 0.6 5.6 94 0.4 WNW 26 37 14 20 - - 3.0
16/09:00pm 6.5 0.2 5.5 93 0.4 WNW 28 46 15 25 - - 2.4
16/08:30pm 6.5 0.1 5.3 92 0.5 WNW 28 43 15 23 - - 2.4
16/08:00pm 6.5 -0.3 5.3 92 0.5 WNW 30 41 16 22 - - 2.4
16/07:30pm 6.7 0.4 5.5 92 0.5 NW 28 44 15 24 - - 2.2
16/07:00pm 6.7 0.4 5.7 93 0.4 NW 28 43 15 23 - - 2.2
16/06:35pm 6.7 -0.5 5.8 94 0.4 NW 33 52 18 28 - - 1.6
16/06:30pm 6.7 -0.5 5.7 93 0.4 NW 33 48 18 26 - - 1.4
16/06:00pm 6.9 0.9 5.1 88 0.8 WNW 26 39 14 21 - - 0.4
16/05:30pm 7.2 1.0 4.5 83 1.2 WNW 26 37 14 20 - - 0.4
16/05:00pm 7.3 0.8 4.8 84 1.1 WNW 28 44 15 24 - - 0.4
16/04:41pm 7.5 1.1 5.0 84 1.1 WNW 28 46 15 25 - - 0.4
16/04:30pm 7.5 1.0 4.8 83 1.2 WNW 28 43 15 23 - - 0.4
16/04:04pm 7.4 0.9 4.7 83 1.2 WNW 28 46 15 25 - - 0.4
16/04:00pm 7.4 1.2 4.4 81 1.3 WNW 26 43 14 23 - - 0.4
16/03:30pm 7.8 2.1 5.1 83 1.2 WNW 24 37 13 20 - - 0.2
16/03:00pm 8.4 1.5 4.8 78 1.6 WNW 30 46 16 25 - - 0.0
16/02:30pm 8.4 3.1 5.2 80 1.4 WNW 22 33 12 18 - - 0.0
16/02:06pm 8.7 2.2 4.7 76 1.8 WNW 28 54 15 29 - - 0.0
16/02:00pm 8.8 3.0 4.6 75 1.9 WNW 24 41 13 22 - - 0.0
16/01:32pm 9.4 3.0 5.0 74 2.0 WNW 28 50 15 27 - - 0.0
16/01:30pm 9.6 3.6 5.4 75 1.9 WNW 26 48 14 26 - - 0.0
16/01:22pm 9.8 3.4 5.2 73 2.1 WNW 28 48 15 26 - - 0.0
16/01:00pm 10.3 4.8 5.7 73 2.1 WNW 24 39 13 21 - - 0.0
16/12:49pm 10.2 3.9 5.6 73 2.1 WNW 28 50 15 27 - - 0.0
16/12:30pm 9.5 3.9 5.3 75 1.9 WNW 24 39 13 21 - - 0.0
16/12:00pm 9.2 3.3 5.6 78 1.6 WNW 26 52 14 28 - - 0.0
16/11:30am 8.5 2.0 4.9 78 1.6 NW 28 54 15 29 - - 0.0
16/11:00am 8.2 1.0 5.0 80 1.4 WNW 32 52 17 28 - - 0.0
16/10:36am 7.4 1.0 5.0 85 1.1 NW 28 46 15 25 - - 0.0
16/10:30am 7.3 0.9 5.1 86 1.0 WNW 28 46 15 25 - - 0.0
16/10:16am 7.3 0.9 5.1 86 1.0 WNW 28 50 15 27 - - 0.0
16/10:00am 7.1 0.7 5.1 87 0.9 NW 28 43 15 23 - - 0.0
16/09:30am 6.6 0.1 4.8 88 0.8 WNW 28 43 15 23 - - 0.0
16/09:04am 6.5 -0.4 4.8 89 0.7 NW 30 50 16 27 - - 0.0
16/09:00am 6.4 -0.8 4.9 90 0.7 NW 32 50 17 27 - - 10.4
16/08:32am 6.1 -0.5 4.4 89 0.7 NW 28 46 15 25 - - 10.4
16/08:30am 6.2 -0.7 4.4 88 0.8 NW 30 46 16 25 - - 10.4
16/08:07am 6.1 -1.2 4.6 90 0.7 NW 32 56 17 30 - - 10.4
16/08:00am 6.1 -0.8 4.6 90 0.7 NW 30 44 16 24 - - 10.4
16/07:30am 6.0 0.2 4.5 90 0.6 NW 24 43 13 23 - - 10.4
16/07:04am 6.1 -0.4 4.6 90 0.7 NW 28 46 15 25 - - 10.4
16/07:00am 6.0 -0.5 4.6 91 0.6 WNW 28 46 15 25 - - 10.4
16/06:30am 6.1 -0.4 4.9 92 0.5 NW 28 48 15 26 - - 10.4
16/06:25am 6.1 -0.8 4.7 91 0.6 NW 30 48 16 26 - - 10.4
16/06:00am 6.4 0.2 4.2 86 0.9 WNW 26 43 14 23 - - 10.0
16/05:30am 6.3 0.9 4.3 87 0.9 WNW 22 46 12 25 - - 10.0
16/05:00am 6.5 0.7 4.2 85 1.0 WNW 24 43 13 23 - - 10.0
16/04:30am 6.5 0.3 4.2 85 1.0 WNW 26 43 14 23 - - 10.0
16/04:02am 6.5 -0.1 4.3 86 1.0 WNW 28 50 15 27 - - 10.0
16/04:00am 6.6 0.4 4.3 85 1.0 WNW 26 50 14 27 - - 10.0
16/03:42am 6.6 -0.3 4.4 86 1.0 NW 30 50 16 27 - - 10.0
16/03:30am 6.7 -0.2 4.4 85 1.0 WNW 30 43 16 23 - - 10.0
16/03:01am 6.3 -0.3 4.3 87 0.9 WNW 28 50 15 27 - - 10.0
16/03:00am 6.3 -0.3 4.3 87 0.9 WNW 28 41 15 22 - - 10.0
16/02:39am 6.3 -0.3 4.3 87 0.9 WNW 28 48 15 26 - - 10.0
16/02:30am 6.3 0.5 4.5 88 0.8 WNW 24 39 13 21 - - 10.0
16/02:00am 6.2 0.7 4.2 87 0.9 WNW 22 33 12 18 - - 10.0
16/01:30am 6.2 0.8 4.5 89 0.7 WNW 22 39 12 21 - - 10.0
16/01:00am 6.3 0.5 4.6 89 0.7 WNW 24 37 13 20 - - 10.0
16/12:30am 6.4 -0.1 4.7 89 0.7 WNW 28 46 15 25 - - 10.0
16/12:29am 6.4 -0.1 4.9 90 0.7 WNW 28 46 15 25 - - 10.0
16/12:00am 6.3 0.2 4.8 90 0.7 WNW 26 44 14 24 - - 10.0
 
Date/Time
EST
Temp
°C
App
Temp
°C
Dew
Point
°C
Rel
Hum
%
Delta-T
°C
Wind Press
QNH
hPa
Press
MSL
hPa
Rain since
9am
mm
Dir  Spd
km/h
Gust
km/h
Spd
kts
Gust
kts
15/11:30pm 6.2 -1.0 5.0 92 0.5 WNW 32 52 17 28 - - 9.8
15/11:00pm 6.2 -1.0 4.8 91 0.6 WNW 32 54 17 29 - - 9.2
15/10:40pm 6.2 -0.3 4.8 91 0.6 WNW 28 46 15 25 - - 8.6
15/10:30pm 6.3 -0.2 4.8 90 0.7 WNW 28 44 15 24 - - 8.6
15/10:06pm 6.6 -1.6 4.8 88 0.8 WNW 37 57 20 31 - - 8.2
15/10:00pm 6.7 -1.2 4.5 86 1.0 WNW 35 52 19 28 - - 8.0

Other Formats:

Comma delimited format used in spreadsheet applications
http://www.bom.gov.au/fwo/IDV60801/IDV60801.94846.axf

JavaScript Object Notation format (JSON) in row-major order
http://www.bom.gov.au/fwo/IDV60801/IDV60801.94846.json